Fairbanks, AK (99775)

10:21 AM AKDT on August 26, 2016 (GMT -0800)
Forrest Ridge | | Change Station

Elev 822 ft 64.82 °N, 147.97 °W | Updated 1 minute ago

Mostly Cloudy
Mostly Cloudy
59.2 °F
Feels Like 59.2 °F
N
0.0
Wind Variable Wind from ESE

Today
High -- | Low -- °F
--% Chance of Precip.
Yesterday
High -- | Low -- °F
Precip. -- in
Pressure 30.28 in
Visibility 10.0 miles
Clouds Few 1700 ft
Mostly Cloudy 5000 ft
Mostly Cloudy 13000 ft
Dew Point 57 °F
Humidity 92%
Rainfall 0.00 in
Snow Depth Not available.
6:15 AM 9:28 PM
Waning Crescent, 32% visible
METAR PAFA 261753Z 00000KT 10SM FEW017 BKN050 BKN130 16/14 A3027 RMK AO2 SLP254 T01560139 10156 20133 53006
Pressure 30.28 in
Visibility 10.0 miles
Clouds Few 1700 ft
Mostly Cloudy 5000 ft
Mostly Cloudy 13000 ft
Dew Point 57 °F
Humidity 92%
Rainfall 0.00 in
Snow Depth Not available.
6:15 AM 9:28 PM
Waning Crescent, 32% visible
METAR PAFA 261753Z 00000KT 10SM FEW017 BKN050 BKN130 16/14 A3027 RMK AO2 SLP254 T01560139 10156 20133 53006

10-Day Weather Forecast

Almanac

Astronomy

Aug. 26, 2016 Rise Set
Actual Time
Civil Twilight
Nautical Twilight
Astronomical Twilight
Moon
Length of Visible Light
Length of Day
Tomorrow will be .
, % of the Moon is Illuminated

Today's Extremes

State Highs State Lows

Community

WunderPhotos

Upload Photos

1,935,169 photos uploaded!

WunderBlog® & News

Nearby

Air Quality

  Air Quality AQ Index Pollutant
Not available.

Snow Depth

Station Depth Elevation

Earthquake Activity

City Distance Mag. Time & Date
Minimum magnitude displayed is 2.5.

Coastal Water Temperatures

Place Temperature

Stations

Nearby Weather Stations

Station Location Temp. Windchill Dew Point Humidity Wind Precip. Elev Updated Type
                   

Watches & Warnings

There are currently no watches in effect.